Terminal Aerodrome Forecast
Issued by NWS Salt Lake City, UT

Home | Current Version | Previous Version | Text Only | Print | Product List | Glossary On
Versions: 1 2 3 4 5 6 7 8 9 10 11 12 13 14 15 16 17 18 19 20 21 22 23 24 25 26 27 28
000
FTUS45 KSLC 252105 AAA
TAFSLC
TAF AMD
KSLC 252105Z 2521/2624 17020G30KT P6SM SCT250
     FM260100 17013G20KT P6SM SCT150 BKN250
     FM261000 32010G18KT P6SM VCSH SCT050 BKN070
     FM261400 34008KT P6SM VCSH BKN060=

USA.gov is the U.S. government's official web portal to all federal, state and local government web resources and services.